Main page
METAR-TAF:

METAR-TAF

Airports :

Sidney Municipal Airport

Sidney, Nebraska, United States

latitude: 41-05-58N, longitude: 102-59-08W, elevation: 4310 ft

Current weather observation

The report was made 51 minutes ago, at 21:53 UTC
Wind 16 mph from the North
Temperature 79°F
Humidity 20%
Pressure 29.94 in. Hg
Visibility: 10 miles
Clear sky

METAR: KSNY 262153Z AUTO 01014KT 10SM CLR 26/01 A2994 RMK AO2 SLP114 T02560011

Time: 16:44 (22:44 UTC)

Forecast

The report was made 4 hours and 46 minutes ago, at 17:58 UTC
Forecast valid from 26 at 18 UTC to 27 at 18 UTC
Wind 14 mph from the North/Northwest
Visibility: 6 miles
Clear sky
From 27 at 0000 UTC
Wind 6 mph from variable directions
Visibility: 6 miles
Scattered clouds at a height of 9000 ft

TAF: KSNY 261758Z 2618/2718 33012KT P6SM SKC FM270000 VRB05KT P6SM SCT090

Weather observations and forecasts of more than 4000 airports (METAR and TAF reports).

The available stations are represented by yellow and red dots on the map.

Hover mouse over dot to see the name of the station.

Then click to see weather observations and forecasts.

To change the map : click on the green buttons with a black cross to zoom in, on the green button with a dash to zoom out, or on the green arrows for adjacent maps.


METAR-TAF: